createdAt,value
2022-12-11T00:01:18.158Z,95.51
2022-12-11T00:03:47.343Z,95.46
2022-12-11T00:06:20.933Z,95.28
2022-12-11T00:08:49.380Z,95.20
2022-12-11T00:11:18.632Z,95.16
2022-12-11T00:13:47.164Z,95.57
2022-12-11T00:16:15.913Z,95.97
2022-12-11T00:18:44.581Z,95.70
2022-12-11T00:21:16.244Z,96.32
2022-12-11T00:23:44.759Z,96.48
2022-12-11T00:26:17.450Z,96.80
2022-12-11T00:28:46.994Z,96.03
2022-12-11T00:31:20.328Z,95.68
2022-12-11T00:33:52.223Z,95.40
2022-12-11T00:36:23.332Z,95.33
2022-12-11T00:38:52.352Z,94.16
2022-12-11T00:41:20.952Z,93.40
2022-12-11T00:43:49.286Z,93.01
2022-12-11T00:46:17.738Z,91.65
2022-12-11T00:48:47.309Z,90.90
2022-12-11T00:51:15.672Z,91.00
2022-12-11T00:53:45.155Z,90.14
2022-12-11T00:56:16.748Z,89.12
2022-12-11T00:58:45.462Z,89.33
2022-12-11T01:01:20.355Z,88.67
2022-12-11T01:03:49.576Z,89.27
2022-12-11T01:06:21.398Z,87.95
2022-12-11T01:09:09.988Z,85.72
2022-12-11T01:11:38.986Z,85.44
2022-12-11T01:14:07.501Z,84.93
2022-12-11T01:16:35.921Z,85.69
2022-12-11T01:19:04.698Z,87.31
2022-12-11T01:21:33.065Z,86.03
2022-12-11T01:24:01.466Z,85.43
2022-12-11T01:26:30.479Z,84.99
2022-12-11T01:28:58.922Z,84.91
2022-12-11T01:31:27.387Z,84.26
2022-12-11T01:33:57.096Z,83.78
2022-12-11T01:36:25.790Z,83.02
2022-12-11T01:38:55.378Z,83.00
2022-12-11T01:41:24.152Z,82.46
2022-12-11T01:44:00.152Z,81.83
2022-12-11T01:46:29.230Z,81.09
2022-12-11T01:48:58.930Z,81.44
2022-12-11T01:51:28.683Z,81.58
2022-12-11T01:54:06.211Z,81.50
2022-12-11T01:56:37.382Z,81.03
2022-12-11T01:59:09.086Z,80.94
2022-12-11T02:01:46.414Z,79.62
2022-12-11T02:04:16.458Z,79.62
2022-12-11T02:06:49.161Z,80.18
2022-12-11T02:09:25.009Z,79.60
2022-12-11T02:12:20.701Z,78.90
2022-12-11T02:14:57.809Z,79.37
2022-12-11T02:17:26.063Z,78.62
2022-12-11T02:20:14.160Z,79.57
2022-12-11T02:23:12.731Z,79.08
2022-12-11T02:26:18.065Z,78.20
2022-12-11T02:29:12.365Z,78.72
2022-12-11T02:31:47.229Z,77.62
2022-12-11T02:34:24.202Z,77.29
2022-12-11T02:36:58.362Z,78.03
2022-12-11T02:39:28.876Z,77.82
2022-12-11T02:41:58.020Z,76.44
2022-12-11T02:44:30.491Z,76.39
2022-12-11T02:47:00.624Z,76.12
2022-12-11T02:49:30.208Z,75.88
2022-12-11T02:52:00.430Z,75.22
2022-12-11T02:54:34.415Z,75.33
2022-12-11T02:57:10.367Z,74.96
2022-12-11T02:59:41.765Z,75.48
2022-12-11T03:02:12.257Z,75.76
2022-12-11T03:04:41.742Z,74.45
2022-12-11T03:07:20.654Z,74.81
2022-12-11T03:09:50.764Z,73.01
2022-12-11T03:12:40.106Z,73.54
2022-12-11T03:15:12.602Z,72.61
2022-12-11T03:18:18.443Z,73.62
2022-12-11T03:21:01.628Z,71.80
2022-12-11T03:23:44.868Z,71.85
2022-12-11T03:26:17.109Z,71.20
2022-12-11T03:29:01.796Z,71.50
2022-12-11T03:31:30.055Z,69.66
2022-12-11T03:34:02.525Z,70.90
2022-12-11T03:36:36.061Z,71.30
2022-12-11T03:39:13.750Z,69.47
2022-12-11T03:41:45.371Z,71.16
2022-12-11T03:44:14.687Z,69.81
2022-12-11T03:46:46.399Z,67.85
2022-12-11T03:49:28.876Z,67.07
2022-12-11T03:51:59.537Z,67.50
2022-12-11T03:54:28.891Z,67.80
2022-12-11T03:57:00.375Z,67.93
2022-12-11T03:59:28.748Z,64.30
2022-12-11T04:01:57.117Z,65.88
2022-12-11T04:04:25.534Z,65.11
2022-12-11T04:06:56.098Z,67.84
2022-12-11T04:09:24.411Z,67.43
2022-12-11T04:11:52.699Z,68.36
2022-12-11T04:14:39.250Z,67.00
2022-12-11T04:17:07.876Z,68.04
2022-12-11T04:20:14.365Z,69.34
2022-12-11T04:23:00.914Z,67.18
2022-12-11T04:25:29.249Z,65.60
2022-12-11T04:27:57.593Z,66.02
2022-12-11T04:30:33.794Z,65.76
2022-12-11T04:33:02.577Z,67.34
2022-12-11T04:35:31.250Z,67.40
2022-12-11T04:37:59.661Z,69.33
2022-12-11T04:40:28.057Z,67.67
2022-12-11T04:42:56.396Z,67.29
2022-12-11T04:45:24.735Z,66.54
2022-12-11T04:47:53.134Z,65.31
2022-12-11T04:50:21.754Z,67.51
2022-12-11T04:52:50.109Z,65.92
2022-12-11T04:55:18.498Z,66.71
2022-12-11T04:57:46.806Z,65.00
2022-12-11T05:00:16.010Z,66.31
2022-12-11T05:02:44.621Z,64.84
2022-12-11T05:05:13.932Z,65.10
2022-12-11T05:07:43.084Z,67.25
2022-12-11T05:10:11.734Z,64.74
2022-12-11T05:12:40.331Z,63.60
2022-12-11T05:15:09.835Z,64.24
2022-12-11T05:17:38.365Z,63.81
2022-12-11T05:20:07.269Z,64.73
2022-12-11T05:22:35.668Z,63.93
2022-12-11T05:25:04.449Z,62.31
2022-12-11T05:27:33.064Z,61.96
2022-12-11T05:30:01.384Z,60.84
2022-12-11T05:32:30.480Z,63.36
2022-12-11T05:34:58.825Z,62.10
2022-12-11T05:37:27.156Z,63.75
2022-12-11T05:39:55.484Z,62.21
2022-12-11T05:42:28.574Z,61.16
2022-12-11T05:44:57.495Z,63.76
2022-12-11T05:47:26.521Z,61.32
2022-12-11T05:49:54.883Z,63.10
2022-12-11T05:52:23.217Z,62.40
2022-12-11T05:54:51.731Z,61.91
2022-12-11T05:57:20.177Z,61.21
2022-12-11T05:59:48.530Z,60.50
2022-12-11T06:02:16.970Z,61.31
2022-12-11T06:04:45.466Z,59.72
2022-12-11T06:07:15.151Z,58.54
2022-12-11T06:09:43.515Z,59.98
2022-12-11T06:12:11.889Z,60.26
2022-12-11T06:14:40.236Z,59.91
2022-12-11T06:17:08.619Z,62.07
2022-12-11T06:19:37.270Z,59.47
2022-12-11T06:22:06.105Z,59.87
2022-12-11T06:24:34.549Z,58.17
2022-12-11T06:27:02.904Z,59.51
2022-12-11T06:29:31.216Z,60.22
2022-12-11T06:31:59.559Z,60.92
2022-12-11T06:34:27.925Z,59.82
2022-12-11T06:36:56.239Z,61.70
2022-12-11T06:39:24.575Z,62.68
2022-12-11T06:41:52.868Z,61.61
2022-12-11T06:44:21.290Z,59.25
2022-12-11T06:46:49.626Z,59.25
2022-12-11T06:49:17.951Z,60.80
2022-12-11T06:51:46.305Z,59.30
2022-12-11T06:54:14.697Z,60.16
2022-12-11T06:56:43.101Z,61.84
2022-12-11T06:59:14.453Z,61.08
2022-12-11T07:01:42.837Z,59.30
2022-12-11T07:04:11.232Z,58.22
2022-12-11T07:06:39.624Z,61.06
2022-12-11T07:09:08.251Z,59.81
2022-12-11T07:11:36.583Z,58.87
2022-12-11T07:14:04.927Z,58.88
2022-12-11T07:16:33.310Z,58.93
2022-12-11T07:19:02.053Z,58.78
2022-12-11T07:21:30.569Z,60.17
2022-12-11T07:23:58.884Z,58.62
2022-12-11T07:26:27.657Z,58.14
2022-12-11T07:28:59.799Z,59.54
2022-12-11T07:31:30.696Z,58.62
2022-12-11T07:34:01.384Z,59.48
2022-12-11T07:36:31.268Z,58.46
2022-12-11T07:39:01.062Z,57.87
2022-12-11T07:41:29.788Z,57.58
2022-12-11T07:43:58.169Z,58.82
2022-12-11T07:46:29.024Z,58.63
2022-12-11T07:48:57.531Z,56.89
2022-12-11T07:51:28.880Z,57.78
2022-12-11T07:54:00.162Z,57.33
2022-12-11T07:56:30.563Z,57.13
2022-12-11T07:59:01.976Z,56.87
2022-12-11T08:01:32.261Z,57.38
2022-12-11T08:04:00.663Z,57.30
2022-12-11T08:06:34.654Z,57.21
2022-12-11T08:09:06.117Z,57.49
2022-12-11T08:11:35.050Z,55.86
2022-12-11T08:14:03.994Z,56.46
2022-12-11T08:16:33.133Z,56.94
2022-12-11T08:19:01.603Z,56.56
2022-12-11T08:21:30.464Z,56.77
2022-12-11T08:23:58.911Z,57.07
2022-12-11T08:26:30.712Z,59.41
2022-12-11T08:29:00.158Z,58.73
2022-12-11T08:31:28.678Z,59.09
2022-12-11T08:33:58.682Z,58.18
2022-12-11T08:36:27.506Z,56.96
2022-12-11T08:38:57.379Z,54.66
2022-12-11T08:41:28.361Z,56.04
2022-12-11T08:43:58.494Z,53.92
2022-12-11T08:46:30.169Z,55.07
2022-12-11T08:48:59.381Z,53.00
2022-12-11T08:51:29.543Z,56.24
2022-12-11T08:54:00.713Z,55.52
2022-12-11T08:56:30.458Z,56.59
2022-12-11T08:59:01.913Z,56.96
2022-12-11T09:01:30.699Z,59.92
2022-12-11T09:03:59.274Z,59.26
2022-12-11T09:06:30.375Z,61.35
2022-12-11T09:09:01.209Z,61.56
2022-12-11T09:11:32.788Z,61.04
2022-12-11T09:14:05.444Z,59.26
2022-12-11T09:16:38.643Z,58.08
2022-12-11T09:19:09.904Z,59.39
2022-12-11T09:21:38.637Z,60.19
2022-12-11T09:24:07.532Z,60.95
2022-12-11T09:26:36.185Z,60.98
2022-12-11T09:29:06.009Z,61.01
2022-12-11T09:31:38.060Z,61.15
2022-12-11T09:34:09.452Z,59.73
2022-12-11T09:36:40.257Z,60.10
2022-12-11T09:39:10.111Z,59.84
2022-12-11T09:42:09.998Z,59.69
2022-12-11T09:44:59.610Z,61.10
2022-12-11T09:47:42.047Z,61.60
2022-12-11T09:50:22.265Z,61.78
2022-12-11T09:53:09.780Z,61.22
2022-12-11T09:55:47.818Z,61.05
2022-12-11T09:58:58.802Z,61.35
2022-12-11T10:01:57.650Z,61.56
2022-12-11T10:04:37.977Z,62.09
2022-12-11T10:07:29.350Z,61.29
2022-12-11T10:10:01.582Z,61.01
2022-12-11T10:13:04.970Z,61.58
2022-12-11T10:16:13.683Z,63.89
2022-12-11T10:18:43.367Z,64.07
2022-12-11T10:21:14.140Z,65.65
2022-12-11T10:23:51.507Z,65.13
2022-12-11T10:26:22.369Z,66.75
2022-12-11T10:28:51.727Z,67.48
2022-12-11T10:31:42.542Z,68.20
2022-12-11T10:34:41.691Z,68.48
2022-12-11T10:37:10.701Z,69.72
2022-12-11T10:39:39.663Z,69.33
2022-12-11T10:42:23.921Z,69.74
2022-12-11T10:45:02.305Z,71.10
2022-12-11T10:47:31.722Z,71.39
2022-12-11T10:50:03.513Z,71.77
2022-12-11T10:52:47.023Z,71.12
2022-12-11T10:55:30.592Z,71.38
2022-12-11T10:58:03.494Z,70.57
2022-12-11T11:00:40.313Z,70.95
2022-12-11T11:03:26.423Z,70.33
2022-12-11T11:06:17.309Z,70.29
2022-12-11T11:08:54.913Z,70.76
2022-12-11T11:11:34.338Z,71.59
2022-12-11T11:14:20.815Z,71.28
2022-12-11T11:16:52.717Z,71.22
2022-12-11T11:19:23.960Z,71.32
2022-12-11T11:22:06.530Z,71.92
2022-12-11T11:24:40.529Z,72.20
2022-12-11T11:27:14.844Z,73.06
2022-12-11T11:29:45.769Z,73.28
2022-12-11T11:32:24.984Z,74.47
2022-12-11T11:34:53.333Z,74.50
2022-12-11T11:37:54.854Z,74.76
2022-12-11T11:40:46.284Z,74.83
2022-12-11T11:43:39.916Z,75.64
2022-12-11T11:46:55.471Z,76.10
2022-12-11T11:49:42.849Z,77.12
2022-12-11T11:52:39.400Z,76.84
2022-12-11T11:55:22.602Z,78.20
2022-12-11T11:58:25.500Z,77.81
2022-12-11T12:00:56.984Z,78.43
2022-12-11T12:03:26.917Z,78.61
2022-12-11T12:06:19.859Z,78.84
2022-12-11T12:09:12.361Z,79.34
2022-12-11T12:12:12.678Z,78.82
2022-12-11T12:14:52.019Z,78.65
2022-12-11T12:17:27.278Z,78.88
2022-12-11T12:20:36.636Z,79.37
2022-12-11T12:23:36.694Z,79.81
2022-12-11T12:26:34.815Z,79.61
2022-12-11T12:29:21.849Z,80.71
2022-12-11T12:32:11.964Z,80.45
2022-12-11T12:35:06.352Z,80.57
2022-12-11T12:37:53.329Z,80.99
2022-12-11T12:40:56.537Z,82.14
2022-12-11T12:43:30.556Z,82.01
2022-12-11T12:46:22.677Z,81.96
2022-12-11T12:48:53.358Z,83.01
2022-12-11T12:51:22.513Z,82.85
2022-12-11T12:54:00.835Z,82.62
2022-12-11T12:56:33.185Z,83.31
2022-12-11T12:59:01.498Z,83.44
2022-12-11T13:01:31.823Z,83.51
2022-12-11T13:04:03.993Z,83.13
2022-12-11T13:06:40.314Z,84.35
2022-12-11T13:09:22.543Z,84.04
2022-12-11T13:11:55.532Z,84.47
2022-12-11T13:14:32.678Z,84.92
2022-12-11T13:17:22.165Z,84.12
2022-12-11T13:19:53.987Z,84.41
2022-12-11T13:22:25.053Z,85.60
2022-12-11T13:24:53.316Z,85.17
2022-12-11T13:27:26.721Z,86.40
2022-12-11T13:30:09.641Z,85.79
2022-12-11T13:32:38.265Z,86.14
2022-12-11T13:35:08.743Z,85.21
2022-12-11T13:37:44.390Z,85.91
2022-12-11T13:40:26.560Z,86.00
2022-12-11T13:42:58.729Z,85.58
2022-12-11T13:45:30.116Z,85.86
2022-12-11T13:47:59.873Z,86.02
2022-12-11T13:50:32.726Z,86.65
2022-12-11T13:53:03.068Z,86.75
2022-12-11T13:55:34.440Z,87.04
2022-12-11T13:58:02.905Z,87.51
2022-12-11T14:00:33.857Z,87.61
2022-12-11T14:03:08.522Z,87.12
2022-12-11T14:05:37.481Z,86.82
2022-12-11T14:08:11.403Z,86.05
2022-12-11T14:10:41.207Z,86.23
2022-12-11T14:13:37.356Z,86.37
2022-12-11T14:16:07.177Z,87.01
2022-12-11T14:18:37.901Z,87.28
2022-12-11T14:21:07.614Z,87.05
2022-12-11T14:23:38.778Z,87.67
2022-12-11T14:26:21.345Z,87.80
2022-12-11T14:28:49.758Z,87.73
2022-12-11T14:31:26.539Z,88.27
2022-12-11T14:34:06.436Z,88.47
2022-12-11T14:36:37.388Z,89.14
2022-12-11T14:39:17.827Z,88.56
2022-12-11T14:41:56.365Z,88.55
2022-12-11T14:44:28.458Z,88.40
2022-12-11T14:47:03.680Z,88.41
2022-12-11T14:49:34.633Z,88.04
2022-12-11T14:52:04.145Z,87.58
2022-12-11T14:54:45.862Z,87.55
2022-12-11T14:57:22.542Z,87.30
2022-12-11T14:59:54.493Z,87.57
2022-12-11T15:02:31.655Z,87.55
2022-12-11T15:05:19.899Z,87.35
2022-12-11T15:08:11.405Z,87.48
2022-12-11T15:10:57.416Z,87.40
2022-12-11T15:13:26.555Z,87.35
2022-12-11T15:15:56.843Z,87.12
2022-12-11T15:18:27.954Z,87.60
2022-12-11T15:21:03.788Z,87.21
2022-12-11T15:23:32.528Z,87.53
2022-12-11T15:26:03.222Z,87.99
2022-12-11T15:28:37.434Z,88.40
2022-12-11T15:31:09.626Z,88.22
2022-12-11T15:33:51.133Z,88.49
2022-12-11T15:36:38.267Z,87.67
2022-12-11T15:39:09.618Z,88.76
2022-12-11T15:41:38.101Z,88.25
2022-12-11T15:44:06.865Z,88.51
2022-12-11T15:46:38.363Z,88.32
2022-12-11T15:49:13.818Z,88.34
2022-12-11T15:51:43.335Z,88.48
2022-12-11T15:54:11.990Z,89.05
2022-12-11T15:56:40.971Z,90.07
2022-12-11T15:59:10.592Z,90.97
2022-12-11T16:01:38.959Z,90.27
2022-12-11T16:04:07.420Z,90.31
2022-12-11T16:06:35.807Z,90.31
2022-12-11T16:09:05.990Z,90.41
2022-12-11T16:11:34.313Z,90.45
2022-12-11T16:14:05.343Z,88.60
2022-12-11T16:16:34.020Z,90.21
2022-12-11T16:19:02.382Z,90.37
2022-12-11T16:21:30.897Z,91.06
2022-12-11T16:23:59.209Z,91.56
2022-12-11T16:26:28.443Z,88.30
2022-12-11T16:28:56.738Z,89.63
2022-12-11T16:31:25.173Z,90.79
2022-12-11T16:33:53.697Z,90.89
2022-12-11T16:36:22.199Z,90.69
2022-12-11T16:38:53.785Z,91.35
2022-12-11T16:41:23.827Z,91.46
2022-12-11T16:43:52.908Z,91.53
2022-12-11T16:46:25.467Z,91.53
2022-12-11T16:48:53.827Z,90.80
2022-12-11T16:51:22.219Z,90.63
2022-12-11T16:53:50.734Z,90.11
2022-12-11T16:56:19.065Z,90.01
2022-12-11T16:58:48.570Z,89.21
2022-12-11T17:01:17.273Z,88.72
2022-12-11T17:03:46.139Z,88.81
2022-12-11T17:06:18.120Z,88.34
2022-12-11T17:08:46.803Z,88.55
2022-12-11T17:11:18.637Z,87.68
2022-12-11T17:13:47.411Z,88.48
2022-12-11T17:16:17.514Z,88.31
2022-12-11T17:18:45.877Z,89.13
2022-12-11T17:21:19.418Z,88.86
2022-12-11T17:23:47.894Z,88.41
2022-12-11T17:26:17.445Z,88.27
2022-12-11T17:28:46.029Z,87.73
2022-12-11T17:31:19.904Z,87.32
2022-12-11T17:33:49.115Z,87.80
2022-12-11T17:36:20.616Z,87.25
2022-12-11T17:38:50.886Z,87.54
2022-12-11T17:41:21.016Z,87.92
2022-12-11T17:43:54.574Z,86.67
2022-12-11T17:46:22.944Z,87.21
2022-12-11T17:48:51.413Z,87.58
2022-12-11T17:51:25.512Z,86.57
2022-12-11T17:53:56.955Z,87.05
2022-12-11T17:56:26.290Z,87.12
2022-12-11T17:58:54.685Z,86.54
2022-12-11T18:01:23.315Z,87.01
2022-12-11T18:03:51.794Z,86.90
2022-12-11T18:06:20.137Z,86.67
2022-12-11T18:08:48.528Z,87.36
2022-12-11T18:11:19.001Z,87.85
2022-12-11T18:13:47.386Z,87.65
2022-12-11T18:16:20.602Z,87.81
2022-12-11T18:18:51.284Z,88.13
2022-12-11T18:21:23.335Z,88.23
2022-12-11T18:23:52.326Z,88.10
2022-12-11T18:26:21.929Z,87.97
2022-12-11T18:28:51.446Z,88.31
2022-12-11T18:31:20.998Z,88.19
2022-12-11T18:33:50.201Z,88.33
2022-12-11T18:36:20.237Z,88.84
2022-12-11T18:38:49.018Z,88.57
2022-12-11T18:41:19.151Z,88.79
2022-12-11T18:43:47.619Z,88.69
2022-12-11T18:46:18.798Z,88.43
2022-12-11T18:48:47.951Z,87.92
2022-12-11T18:51:19.912Z,88.18
2022-12-11T18:53:48.276Z,88.48
2022-12-11T18:56:18.502Z,89.27
2022-12-11T18:58:47.611Z,89.29
2022-12-11T19:01:25.870Z,89.26
2022-12-11T19:04:06.700Z,89.34
2022-12-11T19:06:38.961Z,89.03
2022-12-11T19:09:09.863Z,88.88
2022-12-11T19:11:41.696Z,88.85
2022-12-11T19:14:11.160Z,88.65
2022-12-11T19:16:42.491Z,88.96
2022-12-11T19:19:19.552Z,89.00
2022-12-11T19:21:49.495Z,87.46
2022-12-11T19:24:23.555Z,88.57
2022-12-11T19:26:52.361Z,86.99
2022-12-11T19:29:23.686Z,86.34
2022-12-11T19:31:52.898Z,85.29
2022-12-11T19:34:21.700Z,84.80
2022-12-11T19:36:50.434Z,85.46
2022-12-11T19:39:20.653Z,86.80
2022-12-11T19:41:50.091Z,87.27
2022-12-11T19:44:18.456Z,86.88
2022-12-11T19:46:46.856Z,86.55
2022-12-11T19:49:15.450Z,86.24
2022-12-11T19:51:44.565Z,87.21
2022-12-11T19:54:17.996Z,87.15
2022-12-11T19:56:46.869Z,86.99
2022-12-11T19:59:17.803Z,87.11
2022-12-11T20:01:48.858Z,87.28
2022-12-11T20:04:18.851Z,87.23
2022-12-11T20:06:48.362Z,87.59
2022-12-11T20:09:17.765Z,87.40
2022-12-11T20:11:48.249Z,87.41
2022-12-11T20:14:23.858Z,87.47
2022-12-11T20:17:12.328Z,87.90
2022-12-11T20:19:42.348Z,88.22
2022-12-11T20:22:10.731Z,88.06
2022-12-11T20:24:39.324Z,88.29
2022-12-11T20:27:07.684Z,88.09
2022-12-11T20:29:36.134Z,88.50
2022-12-11T20:32:04.508Z,88.64
2022-12-11T20:34:33.000Z,88.40
2022-12-11T20:37:01.347Z,88.97
2022-12-11T20:39:30.157Z,88.99
2022-12-11T20:41:58.621Z,88.85
2022-12-11T20:44:26.945Z,89.30
2022-12-11T20:46:55.330Z,89.31
2022-12-11T20:49:23.673Z,90.02
2022-12-11T20:51:51.976Z,90.25
2022-12-11T20:54:20.382Z,90.03
2022-12-11T20:56:48.907Z,89.88
2022-12-11T20:59:17.492Z,89.82
2022-12-11T21:01:46.079Z,89.65
2022-12-11T21:04:14.442Z,89.70
2022-12-11T21:06:43.321Z,89.85
2022-12-11T21:09:18.632Z,89.83
2022-12-11T21:11:47.246Z,90.05
2022-12-11T21:14:17.457Z,90.19
2022-12-11T21:16:46.898Z,90.31
2022-12-11T21:19:22.911Z,89.63
2022-12-11T21:21:52.056Z,90.18
2022-12-11T21:24:28.396Z,90.54
2022-12-11T21:26:58.959Z,90.21
2022-12-11T21:29:30.231Z,90.36
2022-12-11T21:31:59.638Z,90.50
2022-12-11T21:34:28.162Z,90.64
2022-12-11T21:36:57.640Z,90.26
2022-12-11T21:39:27.444Z,90.27
2022-12-11T21:41:55.780Z,89.20
2022-12-11T21:47:12.545Z,90.59
2022-12-11T21:49:40.989Z,90.65
2022-12-11T21:52:10.189Z,90.07
2022-12-11T21:54:38.567Z,89.79
2022-12-11T21:57:06.981Z,89.84
2022-12-11T21:59:35.966Z,90.05
2022-12-11T22:02:04.423Z,89.58
2022-12-11T22:04:32.773Z,90.56
2022-12-11T22:07:01.356Z,90.11
2022-12-11T22:09:29.720Z,89.86
2022-12-11T22:11:58.717Z,90.30
2022-12-11T22:14:27.717Z,88.43
2022-12-11T22:16:56.126Z,87.40
2022-12-11T22:19:29.088Z,87.82
2022-12-11T22:22:00.576Z,88.44
2022-12-11T22:24:28.890Z,88.81
2022-12-11T22:26:57.207Z,88.93
2022-12-11T22:29:25.560Z,89.24
2022-12-11T22:31:55.431Z,89.00
2022-12-11T22:34:23.875Z,89.28
2022-12-11T22:36:52.289Z,89.25
2022-12-11T22:39:20.706Z,89.23
2022-12-11T22:41:49.126Z,88.81
2022-12-11T22:44:19.729Z,88.90
2022-12-11T22:46:50.225Z,88.98
2022-12-11T22:49:20.241Z,88.68
2022-12-11T22:51:49.859Z,88.80
2022-12-11T22:54:18.185Z,88.96
2022-12-11T22:56:46.537Z,89.22
2022-12-11T22:59:15.122Z,89.12
2022-12-11T23:01:43.537Z,88.96
2022-12-11T23:04:11.878Z,89.01
2022-12-11T23:06:40.384Z,89.27
2022-12-11T23:09:09.519Z,89.93
2022-12-11T23:11:39.333Z,89.80
2022-12-11T23:14:09.653Z,90.36
2022-12-11T23:16:38.033Z,89.98
2022-12-11T23:19:06.751Z,89.85
2022-12-11T23:21:35.363Z,89.63
2022-12-11T23:24:04.887Z,89.60
2022-12-11T23:26:34.060Z,89.55
2022-12-11T23:29:03.177Z,89.81
2022-12-11T23:31:31.862Z,89.90
2022-12-11T23:34:00.633Z,90.21
2022-12-11T23:36:30.246Z,90.30
2022-12-11T23:38:58.691Z,90.51
2022-12-11T23:41:27.122Z,90.33
2022-12-11T23:43:55.610Z,90.35
2022-12-11T23:46:25.517Z,90.68
2022-12-11T23:48:54.886Z,90.58
2022-12-11T23:51:25.279Z,90.79
2022-12-11T23:53:54.639Z,90.68
2022-12-11T23:56:29.045Z,91.21
2022-12-11T23:58:58.425Z,91.11
